Time;durP1;ratioP1;P1;durP2;ratioP2;P2;SDS_P1;SDS_P2;PMS_P1;PMS_P2;Temp;Humidity;BMP_temperature;BMP_pressure;BME280_temperature;BME280_humidity;BME280_pressure;Samples;Min_cycle;Max_cycle;Signal;HPM_P1;HPM_P2
2022/02/28 00:02:45;;;;;;;4.25;2.80;;;18.90;46.60;;;;;;7747912;23;20015;-66
2022/02/28 00:05:46;;;;;;;4.22;2.85;;;19.00;46.70;;;;;;7747434;23;20008;-66
2022/02/28 00:08:47;;;;;;;3.35;2.42;;;19.00;46.70;;;;;;7748195;23;20324;-66
2022/02/28 00:11:47;;;;;;;3.30;2.60;;;19.00;46.70;;;;;;7747908;23;20046;-66
2022/02/28 00:14:48;;;;;;;3.28;2.45;;;18.90;46.70;;;;;;7748686;23;20004;-66
2022/02/28 00:17:49;;;;;;;3.40;2.80;;;19.00;46.80;;;;;;7747902;23;20478;-66
2022/02/28 00:20:50;;;;;;;6.75;2.60;;;19.00;46.80;;;;;;7747411;23;20018;-66
2022/02/28 00:23:50;;;;;;;2.47;2.10;;;19.00;46.70;;;;;;7747931;23;20000;-66
2022/02/28 00:26:51;;;;;;;4.45;2.88;;;19.00;46.80;;;;;;7747825;23;20450;-66
2022/02/28 00:29:52;;;;;;;3.85;2.90;;;19.00;46.80;;;;;;7748149;23;20035;-66
2022/02/28 00:32:53;;;;;;;3.45;2.60;;;19.00;46.80;;;;;;7747565;23;20434;-66
2022/02/28 00:35:53;;;;;;;3.20;2.42;;;19.00;46.80;;;;;;7746785;23;20008;-66
2022/02/28 00:38:54;;;;;;;3.10;2.50;;;19.00;46.80;;;;;;7747540;23;20015;-65
2022/02/28 00:41:55;;;;;;;2.97;2.17;;;19.00;46.80;;;;;;7747583;23;20015;-66
2022/02/28 00:44:56;;;;;;;2.75;2.33;;;19.00;46.80;;;;;;7747802;23;20008;-66
2022/02/28 00:47:56;;;;;;;2.90;2.22;;;19.00;46.80;;;;;;7747512;23;20007;-66
2022/02/28 00:50:57;;;;;;;3.53;2.60;;;19.00;46.80;;;;;;7747698;23;20435;-66
2022/02/28 00:53:57;;;;;;;3.60;2.40;;;18.90;46.70;;;;;;7747351;23;20008;-65
2022/02/28 00:56:58;;;;;;;3.10;2.30;;;18.90;46.70;;;;;;7747584;23;20012;-66
2022/02/28 00:59:59;;;;;;;3.97;2.22;;;18.90;46.80;;;;;;7747055;23;20474;-66
2022/02/28 01:02:59;;;;;;;3.55;2.78;;;18.90;46.80;;;;;;7747283;23;20075;-66
2022/02/28 01:06:00;;;;;;;3.28;2.42;;;19.00;46.80;;;;;;7746869;23;20016;-66
2022/02/28 01:09:01;;;;;;;3.38;2.58;;;19.00;46.80;;;;;;7747401;23;20012;-65
2022/02/28 01:12:04;;;;;;;2.72;2.20;;;18.90;46.70;;;;;;7747044;23;20008;-66
2022/02/28 01:15:07;;;;;;;2.65;2.33;;;19.00;46.80;;;;;;7747612;23;20014;-66
2022/02/28 01:18:10;;;;;;;3.67;2.35;;;19.00;46.80;;;;;;7747582;23;20008;-66
2022/02/28 01:21:10;;;;;;;3.40;2.20;;;18.90;46.70;;;;;;7746829;23;20015;-66
2022/02/28 01:24:11;;;;;;;2.92;2.20;;;18.90;46.70;;;;;;7746925;23;20008;-66
2022/02/28 01:27:11;;;;;;;3.30;2.53;;;18.90;46.70;;;;;;7746970;23;20000;-66
2022/02/28 01:30:13;;;;;;;3.50;2.55;;;18.90;46.80;;;;;;7747392;23;20094;-66
2022/02/28 01:33:13;;;;;;;3.08;2.72;;;18.90;46.80;;;;;;7747564;23;20061;-66
2022/02/28 01:36:14;;;;;;;2.90;2.30;;;18.90;46.80;;;;;;7746761;23;20004;-65
2022/02/28 01:39:14;;;;;;;3.03;2.28;;;18.90;46.80;;;;;;7746789;23;20016;-66
2022/02/28 01:42:16;;;;;;;2.28;1.90;;;18.90;46.70;;;;;;7747233;23;20424;-66
2022/02/28 01:45:22;;;;;;;2.65;2.33;;;18.90;46.80;;;;;;7746910;23;20011;-66
2022/02/28 01:48:23;;;;;;;2.72;2.00;;;18.90;46.80;;;;;;7747138;23;20082;-66
2022/02/28 01:51:24;;;;;;;2.05;1.80;;;18.90;46.70;;;;;;7746499;23;20001;-64
2022/02/28 01:54:25;;;;;;;2.30;1.90;;;18.90;46.80;;;;;;7747281;23;20011;-65
2022/02/28 01:57:26;;;;;;;3.60;2.53;;;18.90;46.80;;;;;;7746672;23;20004;-65
2022/02/28 02:00:29;;;;;;;3.17;2.30;;;18.90;46.80;;;;;;7746758;23;20016;-65
2022/02/28 02:03:30;;;;;;;2.40;2.20;;;18.90;46.80;;;;;;7747237;23;20085;-66
2022/02/28 02:06:31;;;;;;;2.42;2.20;;;18.90;46.80;;;;;;7746877;23;20095;-66
2022/02/28 02:09:34;;;;;;;2.65;2.10;;;18.90;46.80;;;;;;7746663;23;20485;-66
2022/02/28 02:12:35;;;;;;;2.08;1.80;;;18.90;46.80;;;;;;7747151;23;20004;-66
2022/02/28 02:15:35;;;;;;;2.75;2.08;;;18.90;46.80;;;;;;7746621;23;20004;-66
2022/02/28 02:18:36;;;;;;;2.90;2.28;;;18.90;46.80;;;;;;7749303;23;20099;-66
2022/02/28 02:21:37;;;;;;;2.25;2.00;;;18.90;46.90;;;;;;7749407;23;20008;-66
2022/02/28 02:24:37;;;;;;;2.67;2.08;;;18.90;46.80;;;;;;7749064;23;20011;-66
2022/02/28 02:27:38;;;;;;;2.95;2.00;;;18.90;46.80;;;;;;7749177;23;20427;-66
2022/02/28 02:30:38;;;;;;;2.97;2.28;;;18.90;46.80;;;;;;7748897;23;20046;-66
2022/02/28 02:33:39;;;;;;;2.70;1.92;;;18.90;46.80;;;;;;7748950;23;20478;-66
2022/02/28 02:36:41;;;;;;;2.97;2.10;;;18.90;46.90;;;;;;7749213;23;20544;-66
2022/02/28 02:39:43;;;;;;;2.70;2.10;;;18.90;46.80;;;;;;7748458;23;20347;-66
2022/02/28 02:42:43;;;;;;;2.50;1.95;;;18.90;46.90;;;;;;7749198;23;20448;-65
2022/02/28 02:45:44;;;;;;;2.85;2.00;;;18.90;46.90;;;;;;7749305;23;20172;-65
2022/02/28 02:48:45;;;;;;;2.65;2.20;;;18.90;46.90;;;;;;7748510;23;20035;-65
2022/02/28 02:51:47;;;;;;;2.40;2.03;;;18.90;46.80;;;;;;7749575;23;20004;-65
2022/02/28 02:54:47;;;;;;;2.45;2.00;;;18.90;46.80;;;;;;7749295;23;20008;-66
2022/02/28 02:57:48;;;;;;;2.28;1.88;;;18.90;46.80;;;;;;7748594;23;20046;-66
2022/02/28 03:00:51;;;;;;;2.47;1.90;;;18.90;46.80;;;;;;7748477;23;20011;-66
2022/02/28 03:03:53;;;;;;;2.58;2.00;;;18.90;46.80;;;;;;7748962;23;20067;-66
2022/02/28 03:06:55;;;;;;;2.58;2.08;;;18.90;46.80;;;;;;7748557;23;20027;-65
2022/02/28 03:09:55;;;;;;;2.50;1.98;;;18.90;46.80;;;;;;7748746;23;20432;-66
2022/02/28 03:12:55;;;;;;;2.22;1.90;;;18.90;46.90;;;;;;7748750;23;20004;-65
2022/02/28 03:15:56;;;;;;;3.05;2.28;;;18.90;46.80;;;;;;7748512;23;20000;-66
2022/02/28 03:18:56;;;;;;;2.33;1.95;;;18.90;46.80;;;;;;7748260;23;20222;-66
2022/02/28 03:21:57;;;;;;;2.30;2.00;;;18.90;46.90;;;;;;7748853;23;20015;-66
2022/02/28 03:24:57;;;;;;;2.75;2.08;;;18.90;46.80;;;;;;7748372;23;20222;-66
2022/02/28 03:27:58;;;;;;;2.28;2.00;;;18.90;46.80;;;;;;7748408;23;20053;-66
2022/02/28 03:30:58;;;;;;;2.70;2.10;;;18.90;46.80;;;;;;7748682;23;20012;-66
2022/02/28 03:33:59;;;;;;;2.53;2.08;;;18.90;46.90;;;;;;7747985;23;20031;-66
2022/02/28 03:37:00;;;;;;;2.80;2.10;;;18.90;46.80;;;;;;7748342;23;20004;-66
2022/02/28 03:40:00;;;;;;;2.53;1.75;;;18.90;46.80;;;;;;7748423;23;20027;-66
2022/02/28 03:43:05;;;;;;;2.83;2.25;;;18.90;46.80;;;;;;7748490;23;20008;-66
2022/02/28 03:46:05;;;;;;;2.50;1.90;;;18.90;46.80;;;;;;7748564;23;20001;-65
2022/02/28 03:49:06;;;;;;;1.98;1.67;;;18.90;46.90;;;;;;7747820;23;20295;-66
2022/02/28 03:52:07;;;;;;;2.85;2.25;;;18.90;46.90;;;;;;7748357;23;20447;-65
2022/02/28 03:55:08;;;;;;;3.72;2.30;;;18.90;46.80;;;;;;7747914;23;20348;-66
2022/02/28 03:58:09;;;;;;;3.13;2.03;;;18.90;46.80;;;;;;7748340;23;20253;-66
2022/02/28 04:01:09;;;;;;;2.55;2.00;;;18.90;46.80;;;;;;7748068;23;20086;-65
2022/02/28 04:04:10;;;;;;;2.50;2.08;;;18.90;46.90;;;;;;7748038;23;20042;-65
2022/02/28 04:07:11;;;;;;;2.83;2.00;;;18.90;46.90;;;;;;7747869;23;20062;-66
2022/02/28 04:10:12;;;;;;;2.97;2.00;;;18.90;46.80;;;;;;7748205;23;20007;-66
2022/02/28 04:13:12;;;;;;;3.30;2.00;;;18.90;46.80;;;;;;7747792;23;20023;-66
2022/02/28 04:16:13;;;;;;;2.83;2.03;;;18.90;46.80;;;;;;7748285;23;20075;-66
2022/02/28 04:19:14;;;;;;;2.85;2.03;;;18.90;46.90;;;;;;7747208;23;20018;-66
2022/02/28 04:22:15;;;;;;;2.30;1.75;;;18.90;46.80;;;;;;7747904;23;20022;-66
2022/02/28 04:25:15;;;;;;;2.28;1.90;;;18.90;46.80;;;;;;7747969;23;20359;-66
2022/02/28 04:28:16;;;;;;;2.38;1.73;;;18.90;46.80;;;;;;7747496;23;20063;-66
2022/02/28 04:31:17;;;;;;;2.65;2.03;;;18.90;46.80;;;;;;7747922;23;20054;-66
2022/02/28 04:34:17;;;;;;;2.72;2.20;;;18.90;46.80;;;;;;7747458;23;20075;-66
2022/02/28 04:37:18;;;;;;;3.22;1.90;;;18.90;46.70;;;;;;7747356;23;20007;-66
2022/02/28 04:40:18;;;;;;;3.17;2.25;;;18.90;46.80;;;;;;7747090;23;20346;-68
2022/02/28 04:43:19;;;;;;;3.45;2.20;;;18.90;46.60;;;;;;7747557;23;20004;-66
2022/02/28 04:46:19;;;;;;;3.22;2.30;;;18.90;46.80;;;;;;7747630;23;20004;-66
2022/02/28 04:49:20;;;;;;;2.67;2.03;;;18.90;46.80;;;;;;7747419;23;20003;-66
2022/02/28 04:52:21;;;;;;;2.22;1.70;;;18.90;46.80;;;;;;7747645;23;20074;-66
2022/02/28 04:55:22;;;;;;;2.10;1.83;;;18.90;46.80;;;;;;7747557;23;20084;-66
2022/02/28 04:58:23;;;;;;;2.22;1.85;;;18.80;46.80;;;;;;7747149;23;20026;-66
2022/02/28 05:01:24;;;;;;;3.35;2.20;;;18.80;46.70;;;;;;7747904;23;20016;-66
2022/02/28 05:04:24;;;;;;;2.40;2.00;;;18.90;46.80;;;;;;7747520;23;20313;-67
2022/02/28 05:07:25;;;;;;;2.83;2.10;;;18.80;46.70;;;;;;7747374;23;20189;-66
2022/02/28 05:10:25;;;;;;;2.55;1.92;;;18.90;46.90;;;;;;7747014;23;20075;-66
2022/02/28 05:13:26;;;;;;;2.97;1.90;;;18.90;46.90;;;;;;7747168;23;20004;-66
2022/02/28 05:16:27;;;;;;;3.60;2.10;;;18.90;46.90;;;;;;7747412;23;20050;-66
2022/02/28 05:19:27;;;;;;;3.08;2.30;;;18.90;46.80;;;;;;7746648;23;20489;-65
2022/02/28 05:22:28;;;;;;;2.78;2.13;;;18.90;46.90;;;;;;7747199;23;20012;-66
2022/02/28 05:25:28;;;;;;;2.75;1.98;;;18.90;46.80;;;;;;7747585;23;20000;-66
2022/02/28 05:28:29;;;;;;;2.65;2.17;;;18.90;46.70;;;;;;7747174;23;20008;-66
2022/02/28 05:31:29;;;;;;;2.33;2.00;;;18.90;46.70;;;;;;7746912;23;20004;-66
2022/02/28 05:34:30;;;;;;;2.42;2.00;;;18.90;46.70;;;;;;7746875;23;19996;-68
2022/02/28 05:37:30;;;;;;;3.92;2.50;;;18.90;46.70;;;;;;7747084;23;20005;-66
2022/02/28 05:40:32;;;;;;;3.13;2.33;;;18.90;46.80;;;;;;7746764;23;20336;-66
2022/02/28 05:43:32;;;;;;;2.83;2.20;;;18.90;46.80;;;;;;7746772;23;20087;-66
2022/02/28 05:46:33;;;;;;;2.72;1.80;;;18.90;46.80;;;;;;7747523;23;20004;-66
2022/02/28 05:49:33;;;;;;;3.53;2.03;;;18.90;46.70;;;;;;7746942;23;20004;-66
2022/02/28 05:52:34;;;;;;;2.63;1.80;;;18.90;46.80;;;;;;7748926;23;20435;-66
2022/02/28 05:55:36;;;;;;;3.03;2.17;;;18.90;46.70;;;;;;7750079;23;20004;-65
2022/02/28 05:58:36;;;;;;;2.58;2.15;;;18.90;46.70;;;;;;7749533;23;20326;-66
2022/02/28 06:01:37;;;;;;;2.53;1.98;;;18.90;46.70;;;;;;7749490;23;20015;-66
2022/02/28 06:04:38;;;;;;;3.08;1.90;;;18.90;46.80;;;;;;7749251;23;20343;-63
2022/02/28 06:07:38;;;;;;;2.85;2.03;;;18.90;46.70;;;;;;7749927;23;20012;-66
2022/02/28 06:10:39;;;;;;;2.65;1.85;;;18.90;46.80;;;;;;7749099;23;20515;-65
2022/02/28 06:13:39;;;;;;;2.58;2.05;;;18.90;46.70;;;;;;7749643;23;20027;-66
2022/02/28 06:16:39;;;;;;;2.95;2.20;;;18.90;46.70;;;;;;7749571;23;20331;-66
2022/02/28 06:19:40;;;;;;;3.15;2.33;;;18.90;46.80;;;;;;7749252;23;20015;-66
2022/02/28 06:22:41;;;;;;;2.65;1.98;;;18.90;46.80;;;;;;7749533;23;20007;-66
2022/02/28 06:25:43;;;;;;;2.50;1.90;;;18.90;46.80;;;;;;7749015;23;20416;-66
2022/02/28 06:28:43;;;;;;;2.55;1.95;;;18.90;46.70;;;;;;7749145;23;20523;-66
2022/02/28 06:31:45;;;;;;;2.55;1.85;;;18.90;46.60;;;;;;7749364;23;20004;-66
2022/02/28 06:34:46;;;;;;;2.33;1.70;;;18.90;46.80;;;;;;7749332;23;20046;-65
2022/02/28 06:37:47;;;;;;;2.85;2.10;;;18.90;46.70;;;;;;7749245;23;20391;-65
2022/02/28 06:40:49;;;;;;;3.10;2.28;;;18.90;46.70;;;;;;7749015;23;20008;-65
2022/02/28 06:43:49;;;;;;;2.92;2.25;;;18.90;46.70;;;;;;7738022;23;20062;-65
2022/02/28 06:46:52;;;;;;;3.30;2.20;;;18.90;46.60;;;;;;7746894;23;20004;-66
2022/02/28 06:49:52;;;;;;;3.95;2.50;;;18.90;46.80;;;;;;7748027;23;20071;-66
2022/02/28 06:52:53;;;;;;;2.53;1.88;;;19.00;46.70;;;;;;7747234;23;20455;-66
2022/02/28 06:55:54;;;;;;;6.40;2.03;;;18.90;46.50;;;;;;7747908;23;20423;-66
2022/02/28 06:58:54;;;;;;;4.65;2.10;;;18.90;46.50;;;;;;7747745;23;20008;-67
2022/02/28 07:01:55;;;;;;;4.05;2.10;;;19.00;46.70;;;;;;7751044;23;20000;-66
2022/02/28 07:04:56;;;;;;;2.70;2.25;;;19.00;46.70;;;;;;7723263;23;20404;-66
2022/02/28 07:07:56;;;;;;;3.88;2.38;;;19.00;46.80;;;;;;7750316;23;20016;-66
2022/02/28 07:10:57;;;;;;;4.03;2.60;;;19.00;46.80;;;;;;7750197;23;20035;-66
2022/02/28 07:13:57;;;;;;;4.07;2.30;;;19.00;46.90;;;;;;7750449;23;20030;-65
2022/02/28 07:16:58;;;;;;;4.05;2.78;;;19.00;46.90;;;;;;7750090;23;20546;-67
2022/02/28 07:19:58;;;;;;;4.05;2.10;;;19.00;46.90;;;;;;7750058;23;20023;-66
2022/02/28 07:22:59;;;;;;;2.80;2.30;;;19.00;46.90;;;;;;7750498;23;20383;-66
2022/02/28 07:25:59;;;;;;;6.78;2.30;;;19.00;46.90;;;;;;7749901;23;20004;-66
2022/02/28 07:29:00;;;;;;;3.28;2.38;;;19.00;47.00;;;;;;7749749;23;20000;-66
2022/02/28 07:32:02;;;;;;;3.42;2.53;;;18.90;46.90;;;;;;7749855;23;20004;-66
2022/02/28 07:35:03;;;;;;;2.53;2.00;;;19.00;47.00;;;;;;7750251;23;20000;-66
2022/02/28 07:38:04;;;;;;;3.75;2.63;;;19.00;47.00;;;;;;7750020;23;20051;-66
2022/02/28 07:41:05;;;;;;;3.28;2.55;;;18.90;46.90;;;;;;7749667;23;20359;-66
2022/02/28 07:44:06;;;;;;;3.60;2.40;;;19.00;47.00;;;;;;7750001;23;20004;-66
2022/02/28 07:47:07;;;;;;;4.43;2.55;;;19.00;47.00;;;;;;7749988;23;20012;-66
2022/02/28 07:50:08;;;;;;;3.42;2.63;;;18.90;46.90;;;;;;7750240;23;20438;-66
2022/02/28 07:53:08;;;;;;;3.10;2.30;;;19.00;47.00;;;;;;7749808;23;20546;-65
2022/02/28 07:56:09;;;;;;;3.58;2.28;;;19.00;47.00;;;;;;7749935;23;20086;-66
2022/02/28 07:59:10;;;;;;;5.55;2.30;;;19.00;47.10;;;;;;7749683;23;20000;-66
2022/02/28 08:02:10;;;;;;;3.35;2.28;;;18.90;47.00;;;;;;7749890;23;20083;-66
2022/02/28 08:05:11;;;;;;;4.38;2.38;;;19.00;47.00;;;;;;7749379;23;20514;-66
2022/02/28 08:08:12;;;;;;;8.20;2.70;;;19.00;47.00;;;;;;7749562;23;20023;-67
2022/02/28 08:11:13;;;;;;;5.07;2.47;;;19.00;47.00;;;;;;7749603;23;20011;-66
2022/02/28 08:14:13;;;;;;;3.78;2.45;;;19.00;47.00;;;;;;7748843;23;20004;-66
2022/02/28 08:17:14;;;;;;;3.70;2.40;;;19.00;47.00;;;;;;7749714;23;20008;-65
2022/02/28 08:20:14;;;;;;;4.25;2.85;;;19.00;47.00;;;;;;7749362;23;20026;-66
2022/02/28 08:23:16;;;;;;;3.42;2.28;;;19.00;47.00;;;;;;7749725;23;20004;-66
2022/02/28 08:26:16;;;;;;;3.90;2.53;;;19.00;47.00;;;;;;7749924;23;20004;-66
2022/02/28 08:29:17;;;;;;;3.83;2.40;;;19.00;47.00;;;;;;7749522;23;20058;-66
2022/02/28 08:32:18;;;;;;;4.13;2.55;;;19.00;47.40;;;;;;7749102;23;20012;-66
2022/02/28 08:35:18;;;;;;;3.65;2.40;;;19.00;47.00;;;;;;7749201;23;19996;-66
2022/02/28 08:38:19;;;;;;;3.20;2.42;;;19.00;47.00;;;;;;7748941;23;20004;-66
2022/02/28 08:41:19;;;;;;;4.25;2.38;;;19.00;47.00;;;;;;7749041;23;20012;-67
2022/02/28 08:44:20;;;;;;;5.78;2.67;;;19.00;47.00;;;;;;7747996;23;20008;-66
2022/02/28 08:47:20;;;;;;;3.80;2.80;;;19.00;47.00;;;;;;7749431;23;20000;-66
2022/02/28 08:50:21;;;;;;;2.88;2.30;;;19.00;47.00;;;;;;7748709;23;20000;-66
2022/02/28 08:53:22;;;;;;;4.68;2.80;;;19.00;47.00;;;;;;7748667;23;20336;-66
2022/02/28 08:56:22;;;;;;;3.60;2.47;;;19.00;47.00;;;;;;7749126;23;20458;-66
2022/02/28 08:59:23;;;;;;;3.80;2.83;;;19.00;47.00;;;;;;7749312;23;20079;-66
2022/02/28 09:02:23;;;;;;;3.25;2.30;;;19.00;47.00;;;;;;7749010;23;20074;-66
2022/02/28 09:05:24;;;;;;;3.60;2.40;;;19.00;47.00;;;;;;7749542;23;20036;-66
2022/02/28 09:08:24;;;;;;;4.40;2.90;;;18.90;46.90;;;;;;7748375;23;20031;-66
2022/02/28 09:11:25;;;;;;;3.13;2.33;;;19.00;47.00;;;;;;7749335;23;20012;-66
2022/02/28 09:14:26;;;;;;;3.25;2.35;;;19.00;47.00;;;;;;7748501;23;20099;-66
2022/02/28 09:17:27;;;;;;;3.45;2.50;;;19.00;47.10;;;;;;7749195;23;20011;-66
2022/02/28 09:20:28;;;;;;;4.70;2.70;;;19.00;47.00;;;;;;7749103;23;20073;-66
2022/02/28 09:23:28;;;;;;;4.15;2.67;;;18.90;46.90;;;;;;7748718;23;20336;-66
2022/02/28 09:26:29;;;;;;;4.65;2.72;;;19.00;47.00;;;;;;7749016;23;20008;-66
2022/02/28 09:29:30;;;;;;;3.78;3.15;;;19.00;47.00;;;;;;7748873;23;20332;-66
2022/02/28 09:32:30;;;;;;;4.85;2.95;;;19.00;47.00;;;;;;7748400;23;20024;-66
2022/02/28 09:35:31;;;;;;;5.00;2.92;;;19.00;47.00;;;;;;7750827;23;20059;-67
2022/02/28 09:38:32;;;;;;;4.05;2.83;;;18.90;46.90;;;;;;7749347;23;20008;-66
2022/02/28 09:41:32;;;;;;;5.10;2.63;;;18.90;46.90;;;;;;7741753;23;20012;-66
2022/02/28 09:44:34;;;;;;;4.35;2.78;;;19.00;47.00;;;;;;7750045;23;20351;-66
2022/02/28 09:47:35;;;;;;;3.85;2.35;;;19.00;47.00;;;;;;7750378;23;20004;-66
2022/02/28 09:50:36;;;;;;;3.40;2.53;;;19.00;47.00;;;;;;7750497;23;20099;-66
2022/02/28 09:53:36;;;;;;;6.13;2.83;;;18.90;47.00;;;;;;7749832;23;20677;-66
2022/02/28 09:56:37;;;;;;;6.63;2.83;;;19.00;47.00;;;;;;7749700;23;20079;-66
2022/02/28 09:59:37;;;;;;;7.05;2.53;;;18.90;47.00;;;;;;7749829;23;20026;-66
2022/02/28 10:02:38;;;;;;;4.53;3.20;;;19.00;47.00;;;;;;7749408;23;20039;-66
2022/02/28 10:05:38;;;;;;;3.70;2.90;;;19.00;47.10;;;;;;7742365;23;20098;-66
2022/02/28 10:08:47;;;;;;;3.90;2.55;;;19.00;47.10;;;;;;7748062;23;20012;-65
2022/02/28 10:11:52;;;;;;;3.72;2.90;;;19.00;47.10;;;;;;7749268;23;20030;-66
2022/02/28 10:15:00;;;;;;;;;;;19.00;47.10;;;;;;7749205;23;20005;-66
2022/02/28 10:18:03;;;;;;;5.18;3.33;;;19.00;47.10;;;;;;7748155;23;19903;-66
2022/02/28 10:21:04;;;;;;;3.95;3.10;;;19.00;47.10;;;;;;7748479;23;20012;-66
2022/02/28 10:24:09;;;;;;;5.05;3.03;;;19.00;47.10;;;;;;7721487;23;20428;-66
2022/02/28 10:27:15;;;;;;;3.95;3.10;;;19.00;47.20;;;;;;7747429;23;20392;-66
2022/02/28 10:30:30;;;;;;;5.50;3.08;;;19.00;47.20;;;;;;7748599;23;20454;-66
2022/02/28 10:33:36;;;;;;;4.38;2.95;;;19.00;47.10;;;;;;7746510;23;20028;-66
2022/02/28 10:36:36;;;;;;;4.25;3.25;;;19.00;47.20;;;;;;7748463;23;20323;-66
2022/02/28 10:39:39;;;;;;;3.65;3.03;;;19.00;47.10;;;;;;7735356;23;20012;-66
2022/02/28 10:42:49;;;;;;;4.97;3.38;;;19.00;47.20;;;;;;7750071;23;20008;-66
2022/02/28 10:45:50;;;;;;;4.60;3.10;;;18.90;47.10;;;;;;7749193;23;20066;-66
2022/02/28 10:48:59;;;;;;;4.47;3.17;;;19.00;47.10;;;;;;7748554;23;20008;-66
2022/02/28 10:52:10;;;;;;;3.28;2.97;;;19.00;47.20;;;;;;7748333;23;20335;-67
2022/02/28 10:55:10;;;;;;;4.32;3.35;;;19.00;47.20;;;;;;7748749;23;20031;-66
2022/02/28 10:58:16;;;;;;;4.03;2.80;;;19.00;47.10;;;;;;7745062;23;20079;-68
2022/02/28 11:01:17;;;;;;;4.40;3.33;;;18.90;47.00;;;;;;7746277;23;20020;-66
2022/02/28 11:04:39;;;;;;;3.95;2.97;;;19.00;47.20;;;;;;7749002;23;20343;-66
2022/02/28 11:07:42;;;;;;;3.85;3.05;;;19.00;47.20;;;;;;7749314;23;20163;-66
2022/02/28 11:10:43;;;;;;;4.47;3.55;;;19.00;47.20;;;;;;7749179;23;20010;-66
2022/02/28 11:13:44;;;;;;;4.70;3.50;;;19.00;47.20;;;;;;7748981;23;20004;-66
2022/02/28 11:16:45;;;;;;;4.20;3.33;;;19.00;47.20;;;;;;7748944;23;20012;-66
2022/02/28 11:19:47;;;;;;;7.03;3.45;;;19.00;47.20;;;;;;7748526;23;20023;-66
2022/02/28 11:22:49;;;;;;;5.05;3.90;;;19.00;47.20;;;;;;7748374;23;20007;-66
2022/02/28 11:25:50;;;;;;;5.45;3.67;;;18.90;47.10;;;;;;7749181;23;20420;-67
2022/02/28 11:28:50;;;;;;;4.90;3.53;;;19.00;47.20;;;;;;7748460;23;20016;-66
2022/02/28 11:31:55;;;;;;;5.45;3.70;;;19.00;47.20;;;;;;7748752;23;20071;-67
2022/02/28 11:35:34;;;;;;;5.30;3.70;;;18.90;47.10;;;;;;7748899;23;20004;-66
2022/02/28 11:38:34;;;;;;;5.53;3.30;;;19.00;47.20;;;;;;7739792;23;20032;-66
2022/02/28 11:41:34;;;;;;;6.50;4.18;;;19.00;47.10;;;;;;7747822;23;20079;-66
2022/02/28 11:44:37;;;;;;;6.28;3.95;;;19.00;46.50;;;;;;7747958;23;20083;-66
2022/02/28 11:47:37;;;;;;;6.00;3.92;;;19.00;46.90;;;;;;7748371;23;20058;-66
2022/02/28 11:50:59;;;;;;;5.72;3.72;;;19.00;47.00;;;;;;7747371;23;20443;-66
2022/02/28 11:54:05;;;;;;;4.78;3.72;;;19.00;47.00;;;;;;7748439;23;20011;-66
2022/02/28 11:57:05;;;;;;;4.63;3.67;;;18.90;47.00;;;;;;7748443;23;20000;-66
2022/02/28 12:00:08;;;;;;;6.63;4.03;;;19.00;47.10;;;;;;7719913;23;20040;-66
2022/02/28 12:03:21;;;;;;;5.30;3.92;;;19.00;47.10;;;;;;7748603;23;20307;-66
2022/02/28 12:06:47;;;;;;;5.15;3.92;;;19.00;47.10;;;;;;7748374;23;20015;-65
2022/02/28 12:09:50;;;;;;;4.53;3.40;;;18.90;47.00;;;;;;7748572;23;20033;-66
2022/02/28 12:12:58;;;;;;;5.75;3.80;;;19.00;47.10;;;;;;7749433;23;20000;-67
2022/02/28 12:17:30;;;;;;;4.50;3.50;;;18.90;47.00;;;;;;7749802;23;20021;-66
2022/02/28 12:19:33;;;;;;;5.13;3.75;;;18.90;47.00;;;;;;7724437;23;20035;-66
2022/02/28 12:23:08;;;;;;;6.15;3.80;;;19.00;47.10;;;;;;7745079;23;20031;-66
2022/02/28 12:26:10;;;;;;;5.43;3.70;;;19.00;47.10;;;;;;7748169;23;20065;-66
2022/02/28 12:29:11;;;;;;;4.13;3.40;;;19.00;47.10;;;;;;7739147;23;20004;-66
2022/02/28 12:32:12;;;;;;;4.85;3.72;;;19.00;47.00;;;;;;7748902;23;20432;-66
2022/02/28 12:35:12;;;;;;;6.63;4.25;;;19.00;47.00;;;;;;7747612;23;20000;-67
2022/02/28 12:38:13;;;;;;;4.97;3.80;;;19.00;46.90;;;;;;7749078;23;20027;-66
2022/02/28 12:41:21;;;;;;;4.47;3.28;;;19.00;46.90;;;;;;7749055;23;20017;-66
2022/02/28 12:44:22;;;;;;;4.15;3.42;;;19.10;46.90;;;;;;7748754;23;20001;-65
2022/02/28 12:47:24;;;;;;;5.97;4.15;;;19.00;46.70;;;;;;7748604;23;20046;-67
2022/02/28 12:50:28;;;;;;;5.82;4.03;;;19.10;46.80;;;;;;7748139;23;20339;-66
2022/02/28 12:53:30;;;;;;;5.82;4.15;;;19.10;46.70;;;;;;7747501;23;20011;-66
2022/02/28 12:56:31;;;;;;;4.50;3.30;;;19.10;46.70;;;;;;7746848;23;20012;-66
2022/02/28 12:59:33;;;;;;;6.00;3.97;;;19.10;46.70;;;;;;7748481;23;20009;-66
2022/02/28 13:02:34;;;;;;;5.32;3.13;;;19.10;46.70;;;;;;7748291;23;20004;-67
2022/02/28 13:05:34;;;;;;;4.53;3.30;;;19.10;46.70;;;;;;7748868;23;20001;-66
2022/02/28 13:08:40;;;;;;;5.43;3.55;;;19.10;46.70;;;;;;7748707;23;20077;-66
2022/02/28 13:11:45;;;;;;;4.80;3.70;;;19.10;46.70;;;;;;7747863;23;20036;-66
2022/02/28 13:14:46;;;;;;;;;;;19.10;46.80;;;;;;7749344;23;20000;-66
2022/02/28 13:17:47;;;;;;;5.60;4.07;;;19.10;46.80;;;;;;7749129;23;19976;-66
2022/02/28 13:20:47;;;;;;;4.38;3.35;;;19.10;46.80;;;;;;7748646;23;20179;-67
2022/02/28 13:23:48;;;;;;;4.38;3.38;;;19.10;46.90;;;;;;7748552;23;20089;-66
2022/02/28 13:26:50;;;;;;;5.28;3.70;;;19.00;47.00;;;;;;7748732;23;20435;-66
2022/02/28 13:29:51;;;;;;;4.15;3.10;;;19.10;47.10;;;;;;7747403;23;20035;-66
2022/02/28 13:32:51;;;;;;;5.82;3.40;;;19.00;47.10;;;;;;7748178;23;20032;-67
2022/02/28 13:35:52;;;;;;;4.50;3.28;;;19.00;47.10;;;;;;7748609;23;20431;-66
2022/02/28 13:38:53;;;;;;;4.30;3.28;;;19.00;47.10;;;;;;7721528;23;20004;-66
2022/02/28 13:41:56;;;;;;;3.70;2.92;;;19.00;47.10;;;;;;7748570;23;20018;-66
2022/02/28 13:45:09;;;;;;;4.50;3.55;;;19.00;47.10;;;;;;7748473;23;20015;-66
2022/02/28 13:48:16;;;;;;;4.65;3.50;;;19.00;47.20;;;;;;7748332;23;20004;-66
2022/02/28 13:51:17;;;;;;;4.30;3.35;;;19.00;47.20;;;;;;7748459;23;20011;-66
2022/02/28 13:54:17;;;;;;;3.85;2.90;;;19.00;47.20;;;;;;7748147;23;20589;-66
2022/02/28 13:57:18;;;;;;;4.70;3.35;;;19.00;47.20;;;;;;7721861;23;20008;-67
2022/02/28 14:00:20;;;;;;;3.80;3.00;;;19.00;47.20;;;;;;7748154;23;20008;-66
2022/02/28 14:03:24;;;;;;;3.95;3.10;;;19.00;47.20;;;;;;7748408;23;20004;-66
2022/02/28 14:06:24;;;;;;;4.70;3.40;;;19.00;47.20;;;;;;7746987;23;20016;-66
2022/02/28 14:09:26;;;;;;;4.70;3.40;;;19.00;47.20;;;;;;7747974;23;20007;-66
2022/02/28 14:12:31;;;;;;;3.78;3.00;;;19.00;47.30;;;;;;7748998;23;20336;-66
2022/02/28 14:15:32;;;;;;;4.13;2.90;;;19.00;47.20;;;;;;7750301;23;20531;-66
2022/02/28 14:18:33;;;;;;;3.95;3.22;;;19.00;47.20;;;;;;7750452;23;20014;-66
2022/02/28 14:21:33;;;;;;;4.03;2.80;;;19.00;47.20;;;;;;7749976;23;20087;-66
2022/02/28 14:24:56;;;;;;;4.63;3.30;;;19.00;47.20;;;;;;7748272;23;20000;-66
2022/02/28 14:27:56;;;;;;;3.90;3.08;;;19.00;47.30;;;;;;7750949;23;20004;-67
2022/02/28 14:31:01;;;;;;;3.25;2.60;;;19.00;47.30;;;;;;7750640;23;20011;-66
2022/02/28 14:34:05;;;;;;;;;;;19.00;47.30;;;;;;7751384;23;20433;-66
2022/02/28 14:37:06;;;;;;;4.57;2.88;;;19.00;47.30;;;;;;7750590;23;19937;-65
2022/02/28 14:40:07;;;;;;;6.00;2.88;;;19.00;47.30;;;;;;7750569;23;20142;-66
2022/02/28 14:43:08;;;;;;;3.42;2.90;;;19.00;47.30;;;;;;7749910;23;20462;-66
2022/02/28 14:46:13;;;;;;;4.93;3.20;;;19.00;47.40;;;;;;7750511;23;20079;-66
2022/02/28 14:49:15;;;;;;;4.68;3.35;;;19.00;47.30;;;;;;7749814;23;20379;-66
2022/02/28 14:52:15;;;;;;;3.63;2.97;;;19.00;47.30;;;;;;7749448;23;20079;-66
2022/02/28 14:55:17;;;;;;;3.33;2.45;;;19.00;47.30;;;;;;7749195;23;19996;-66
2022/02/28 14:58:17;;;;;;;4.05;3.00;;;19.00;47.30;;;;;;7749706;23;20059;-66
2022/02/28 15:01:18;;;;;;;4.85;3.20;;;19.00;47.30;;;;;;7749188;23;20091;-66
2022/02/28 15:04:19;;;;;;;4.22;2.95;;;19.00;48.00;;;;;;7748198;23;20008;-66
2022/02/28 15:07:19;;;;;;;5.10;2.95;;;19.00;47.40;;;;;;7749373;23;20012;-66
2022/02/28 15:10:20;;;;;;;4.63;2.95;;;19.00;47.80;;;;;;7749466;23;20000;-66
2022/02/28 15:13:21;;;;;;;3.45;2.63;;;19.00;47.40;;;;;;7749203;23;20135;-66
2022/02/28 15:16:22;;;;;;;3.65;2.95;;;19.00;47.40;;;;;;7749378;23;20000;-66
2022/02/28 15:19:22;;;;;;;3.65;2.88;;;19.00;47.40;;;;;;7750146;23;20011;-66
2022/02/28 15:22:23;;;;;;;3.50;2.70;;;19.00;47.40;;;;;;7749689;23;20336;-67
2022/02/28 15:25:25;;;;;;;3.90;2.97;;;19.00;47.40;;;;;;7749613;23;20008;-66
2022/02/28 15:28:26;;;;;;;3.67;2.45;;;19.00;47.40;;;;;;7750010;23;20007;-66
2022/02/28 15:31:26;;;;;;;4.53;3.25;;;19.00;47.40;;;;;;7750140;23;19996;-66
2022/02/28 15:34:27;;;;;;;3.42;2.80;;;19.00;47.40;;;;;;7750085;23;20083;-67
2022/02/28 15:37:28;;;;;;;3.53;2.72;;;19.00;47.40;;;;;;7749803;23;20432;-66
2022/02/28 15:40:28;;;;;;;3.35;2.63;;;19.00;47.40;;;;;;7749797;23;20020;-67
2022/02/28 15:43:29;;;;;;;4.25;3.08;;;19.00;47.40;;;;;;7749117;23;20432;-66
2022/02/28 15:46:29;;;;;;;3.17;2.47;;;19.00;47.40;;;;;;7749952;23;20154;-67
2022/02/28 15:49:30;;;;;;;3.45;2.83;;;19.00;47.40;;;;;;7749670;23;20003;-66